Time;durP1;ratioP1;P1;durP2;ratioP2;P2;SDS_P1;SDS_P2;PMS_P1;PMS_P2;Temp;Humidity;BMP_temperature;BMP_pressure;BME280_temperature;BME280_humidity;BME280_pressure;Samples;Min_cycle;Max_cycle;Signal;HPM_P1;HPM_P2
2023/12/20 00:00:48;;;;;;;;;;;16.20;64.40;;;;;;10327320;28;93106;-47
2023/12/20 00:05:50;;;;;;;;;;;16.20;64.50;;;;;;10325719;28;93881;-49
2023/12/20 00:10:52;;;;;;;;;;;16.10;64.50;;;;;;10305973;28;93612;-45
2023/12/20 00:15:54;;;;;;;;;;;16.10;64.50;;;;;;10326664;28;94523;-46
2023/12/20 00:20:55;;;;;;;;;;;16.10;64.50;;;;;;10325711;28;92685;-45
2023/12/20 00:25:57;;;;;;;;;;;16.10;64.50;;;;;;10326773;28;94592;-49
2023/12/20 00:30:59;;;;;;;;;;;16.10;64.50;;;;;;10325240;28;94587;-46
2023/12/20 00:36:01;;;;;;;;;;;16.00;64.50;;;;;;10322503;28;95824;-45
2023/12/20 00:41:03;;;;;;;;;;;16.00;65.50;;;;;;10318977;28;93686;-43
2023/12/20 00:46:05;;;;;;;;;;;16.00;64.50;;;;;;10325609;28;94081;-45
2023/12/20 00:51:08;;;;;;;;;;;16.00;64.60;;;;;;10324986;28;93520;-48
2023/12/20 00:56:09;;;;;;;;;;;16.00;64.50;;;;;;10324600;28;93426;-43
2023/12/20 01:01:11;;;;;;;;;;;16.00;64.40;;;;;;10324881;28;93385;-43
2023/12/20 01:06:14;;;;;;;;;;;16.00;64.30;;;;;;10323828;28;93736;-44
2023/12/20 01:11:15;;;;;;;;;;;16.10;64.10;;;;;;10330939;28;92755;-46
2023/12/20 01:16:17;;;;;;;;;;;16.10;63.90;;;;;;10332815;28;93498;-49
2023/12/20 01:21:19;;;;;;;;;;;16.10;63.90;;;;;;10332229;28;93940;-45
2023/12/20 01:26:21;;;;;;;;;;;16.10;63.90;;;;;;10329644;28;96081;-45
2023/12/20 01:31:23;;;;;;;;;;;16.00;63.80;;;;;;10332000;28;94547;-45
2023/12/20 01:36:24;;;;;;;;;;;16.10;63.80;;;;;;10324199;28;93445;-46
2023/12/20 01:41:26;;;;;;;;;;;16.10;64.00;;;;;;10330942;28;94016;-45
2023/12/20 01:46:28;;;;;;;;;;;16.10;64.00;;;;;;10312084;28;94484;-48
2023/12/20 01:51:30;;;;;;;;;;;16.00;63.90;;;;;;10330710;28;93831;-47
2023/12/20 01:56:32;;;;;;;;;;;16.00;64.00;;;;;;10325067;28;93420;-47
2023/12/20 02:06:56;;;;;;;;;;;15.90;63.90;;;;;;9198449;22;93276;-54
2023/12/20 02:11:57;;;;;;;;;;;16.00;64.00;;;;;;10339263;28;94006;-53
2023/12/20 02:16:59;;;;;;;;;;;15.90;64.00;;;;;;10357913;28;99538;-53
2023/12/20 02:22:05;;;;;;;;;;;16.00;64.10;;;;;;10356084;28;95438;-52
2023/12/20 02:27:07;;;;;;;;;;;16.00;64.10;;;;;;10360585;28;94280;-53
2023/12/20 02:32:09;;;;;;;;;;;16.00;63.80;;;;;;10360866;28;93434;-52
2023/12/20 02:37:11;;;;;;;;;;;16.00;63.80;;;;;;10342647;28;94010;-50
2023/12/20 02:42:13;;;;;;;;;;;16.00;63.60;;;;;;10357965;28;94576;-56
2023/12/20 02:47:15;;;;;;;;;;;16.00;63.60;;;;;;10358053;28;95449;-51
2023/12/20 02:52:17;;;;;;;;;;;16.00;63.60;;;;;;10368999;28;92696;-48
2023/12/20 02:57:19;;;;;;;;;;;16.00;63.60;;;;;;10372156;28;93018;-52
2023/12/20 03:02:20;;;;;;;;;;;16.00;63.80;;;;;;10370571;28;93325;-53
2023/12/20 03:07:22;;;;;;;;;;;16.00;63.70;;;;;;10364680;28;96271;-51
2023/12/20 03:12:24;;;;;;;;;;;15.90;63.80;;;;;;10370228;28;93389;-53
2023/12/20 03:17:26;;;;;;;;;;;15.90;63.70;;;;;;10351355;28;93156;-54
2023/12/20 03:22:27;;;;;;;;;;;15.90;63.70;;;;;;10369229;28;94015;-52
2023/12/20 03:27:29;;;;;;;;;;;15.90;63.80;;;;;;10367861;28;93792;-53
2023/12/20 03:32:31;;;;;;;;;;;15.90;63.80;;;;;;10368119;28;94633;-53
2023/12/20 03:37:33;;;;;;;;;;;15.80;63.70;;;;;;10351266;28;93045;-52
2023/12/20 03:42:35;;;;;;;;;;;15.80;63.80;;;;;;10368603;28;92742;-48
2023/12/20 03:47:37;;;;;;;;;;;15.90;63.90;;;;;;10369335;28;93874;-53
2023/12/20 03:52:39;;;;;;;;;;;15.90;63.70;;;;;;10368839;28;93499;-55
2023/12/20 03:57:40;;;;;;;;;;;15.90;63.60;;;;;;10360228;28;95845;-51
2023/12/20 04:02:43;;;;;;;;;;;15.90;63.60;;;;;;10345167;28;93282;-50
2023/12/20 04:07:44;;;;;;;;;;;15.90;63.50;;;;;;10369012;28;94411;-51
2023/12/20 04:12:47;;;;;;;;;;;15.90;63.50;;;;;;10367388;28;93451;-51
2023/12/20 04:17:48;;;;;;;;;;;15.90;63.50;;;;;;10350272;28;94521;-51
2023/12/20 04:22:51;;;;;;;;;;;15.90;63.60;;;;;;10348308;28;93477;-50
2023/12/20 04:27:53;;;;;;;;;;;15.90;63.50;;;;;;10359219;28;93505;-50
2023/12/20 04:32:55;;;;;;;;;;;15.90;63.60;;;;;;10358969;28;92678;-52
2023/12/20 04:37:56;;;;;;;;;;;15.90;63.50;;;;;;10357493;28;94361;-49
2023/12/20 04:42:58;;;;;;;;;;;15.90;63.40;;;;;;10358048;28;93669;-50
2023/12/20 04:48:01;;;;;;;;;;;15.90;63.30;;;;;;10355318;28;96234;-49
2023/12/20 04:53:03;;;;;;;;;;;16.00;63.30;;;;;;10356969;28;93727;-51
2023/12/20 04:58:05;;;;;;;;;;;15.90;63.20;;;;;;10344953;28;94844;-52
2023/12/20 05:03:06;;;;;;;;;;;15.90;63.10;;;;;;10358075;28;94624;-52
2023/12/20 05:08:08;;;;;;;;;;;15.90;63.10;;;;;;10357304;28;93431;-52
2023/12/20 05:13:10;;;;;;;;;;;15.90;63.10;;;;;;10356140;28;96245;-49
2023/12/20 05:18:12;;;;;;;;;;;15.90;63.10;;;;;;10356409;28;95029;-50
2023/12/20 05:23:14;;;;;;;;;;;15.90;63.20;;;;;;10357854;28;94024;-52
2023/12/20 05:28:17;;;;;;;;;;;15.90;63.10;;;;;;10363134;28;93829;-50
2023/12/20 05:33:19;;;;;;;;;;;15.90;63.30;;;;;;10364166;28;94262;-53
2023/12/20 05:38:20;;;;;;;;;;;15.90;63.30;;;;;;10352872;28;95869;-53
2023/12/20 05:43:22;;;;;;;;;;;15.80;63.30;;;;;;10355718;28;93468;-52
2023/12/20 05:48:24;;;;;;;;;;;15.80;63.40;;;;;;10338638;28;94087;-51
2023/12/20 05:53:26;;;;;;;;;;;16.00;63.40;;;;;;10364306;28;94298;-51
2023/12/20 05:58:29;;;;;;;;;;;16.30;63.20;;;;;;10370270;28;93460;-52
2023/12/20 06:03:31;;;;;;;;;;;16.50;62.60;;;;;;10371002;28;93471;-49
2023/12/20 06:08:32;;;;;;;;;;;16.60;62.10;;;;;;10372293;28;93437;-52
2023/12/20 06:13:35;;;;;;;;;;;16.70;61.90;;;;;;10372804;28;94421;-48
2023/12/20 06:18:37;;;;;;;;;;;16.70;61.70;;;;;;10353046;28;94409;-50
2023/12/20 06:23:39;;;;;;;;;;;16.70;61.60;;;;;;10351872;28;93817;-51
2023/12/20 06:28:41;;;;;;;;;;;16.70;61.50;;;;;;10369752;28;95790;-49
2023/12/20 06:33:43;;;;;;;;;;;16.70;61.60;;;;;;10369091;28;94176;-50
2023/12/20 06:38:46;;;;;;;;;;;16.60;61.60;;;;;;10360935;28;93323;-53
2023/12/20 06:43:47;;;;;;;;;;;16.60;61.70;;;;;;10361121;28;94545;-52
2023/12/20 06:48:51;;;;;;;;;;;16.50;61.80;;;;;;10343518;28;94455;-49
2023/12/20 06:53:53;;;;;;;;;;;16.50;61.90;;;;;;10361761;28;94454;-54
2023/12/20 06:58:55;;;;;;;;;;;16.40;62.00;;;;;;10361876;28;95999;-50
2023/12/20 07:03:57;;;;;;;;;;;16.40;62.10;;;;;;10361828;28;92800;-53
2023/12/20 07:08:58;;;;;;;;;;;16.50;62.00;;;;;;10363119;28;93497;-52
2023/12/20 07:14:01;;;;;;;;;;;16.50;61.90;;;;;;10369597;28;94101;-52
2023/12/20 07:19:03;;;;;;;;;;;16.50;61.80;;;;;;10366652;28;95285;-51
2023/12/20 07:24:05;;;;;;;;;;;16.50;61.70;;;;;;10368897;28;93171;-51
2023/12/20 07:29:06;;;;;;;;;;;16.50;61.70;;;;;;10366600;28;93404;-49
2023/12/20 07:34:08;;;;;;;;;;;16.50;61.80;;;;;;10364668;28;93398;-51
2023/12/20 07:39:10;;;;;;;;;;;16.40;62.30;;;;;;10367326;28;93418;-51
2023/12/20 07:44:12;;;;;;;;;;;16.30;63.10;;;;;;10346815;28;93427;-51
2023/12/20 07:49:14;;;;;;;;;;;16.30;63.30;;;;;;10363412;28;93798;-49
2023/12/20 07:54:16;;;;;;;;;;;16.30;63.60;;;;;;10367749;28;92903;-51
2023/12/20 07:59:17;;;;;;;;;;;16.30;63.90;;;;;;10351473;28;94877;-54
2023/12/20 08:04:32;;;;;;;;;;;16.30;64.60;;;;;;10353472;28;93793;-51
2023/12/20 08:09:36;;;;;;;;;;;16.20;64.20;;;;;;10356305;28;117168;-54
2023/12/20 08:14:38;;;;;;;;;;;16.20;64.10;;;;;;10358807;28;93601;-55
2023/12/20 08:19:40;;;;;;;;;;;16.10;64.10;;;;;;10357303;28;93498;-55
2023/12/20 08:24:42;;;;;;;;;;;16.10;64.20;;;;;;10356864;28;94238;-54
2023/12/20 08:29:45;;;;;;;;;;;16.00;64.20;;;;;;10341659;28;93481;-52
2023/12/20 08:34:47;;;;;;;;;;;16.00;64.20;;;;;;10358955;28;95149;-54
2023/12/20 08:39:49;;;;;;;;;;;16.00;64.20;;;;;;10358426;28;93650;-57
2023/12/20 08:44:50;;;;;;;;;;;15.90;64.20;;;;;;10340415;28;92663;-48
2023/12/20 08:49:56;;;;;;;;;;;16.00;64.30;;;;;;10355890;28;94411;-52
2023/12/20 08:54:58;;;;;;;;;;;15.90;64.20;;;;;;10339746;28;94103;-48
2023/12/20 09:00:00;;;;;;;;;;;16.00;64.70;;;;;;10354830;28;96772;-48
2023/12/20 09:05:02;;;;;;;;;;;15.90;64.30;;;;;;10358407;28;93392;-53
2023/12/20 09:10:04;;;;;;;;;;;15.90;64.40;;;;;;10356090;28;93361;-54
2023/12/20 09:15:06;;;;;;;;;;;15.90;64.30;;;;;;10341131;28;94694;-51
2023/12/20 09:20:08;;;;;;;;;;;15.90;64.50;;;;;;10355874;28;92688;-52
2023/12/20 09:25:11;;;;;;;;;;;15.90;64.40;;;;;;10355075;28;93535;-53
2023/12/20 09:30:13;;;;;;;;;;;15.90;64.40;;;;;;10360141;28;94249;-52
2023/12/20 09:35:26;;;;;;;;;;;15.80;64.50;;;;;;10348176;28;93767;-46
2023/12/20 09:40:28;;;;;;;;;;;15.80;64.50;;;;;;10345621;28;93909;-48
2023/12/20 09:45:31;;;;;;;;;;;15.80;64.40;;;;;;10363318;28;93852;-46
2023/12/20 09:50:33;;;;;;;;;;;15.80;64.50;;;;;;10358449;28;96618;-55
2023/12/20 09:55:35;;;;;;;;;;;15.80;64.40;;;;;;10361992;28;93834;-54
2023/12/20 10:00:37;;;;;;;;;;;15.80;64.70;;;;;;10352424;28;94380;-52
2023/12/20 10:05:42;;;;;;;;;;;15.90;64.50;;;;;;10350558;28;94046;-57
2023/12/20 10:10:45;;;;;;;;;;;16.10;64.30;;;;;;10368061;28;93427;-53
2023/12/20 10:15:49;;;;;;;;;;;16.30;63.90;;;;;;10345490;28;93518;-50
2023/12/20 10:20:51;;;;;;;;;;;16.60;63.30;;;;;;10369709;28;94445;-47
2023/12/20 10:25:59;;;;;;;;;;;16.90;62.80;;;;;;10365340;28;92781;-50
2023/12/20 10:31:01;;;;;;;;;;;17.10;62.30;;;;;;10347767;28;93983;-49
2023/12/20 10:36:03;;;;;;;;;;;17.30;61.80;;;;;;10364475;28;94350;-52
2023/12/20 10:41:05;;;;;;;;;;;17.50;61.40;;;;;;10368934;28;96569;-47
2023/12/20 10:46:08;;;;;;;;;;;17.70;60.90;;;;;;10361323;28;94247;-52
2023/12/20 10:51:10;;;;;;;;;;;17.90;60.80;;;;;;10368174;28;94832;-51
2023/12/20 10:56:15;;;;;;;;;;;17.90;60.50;;;;;;10363520;28;93714;-52
2023/12/20 11:01:20;;;;;;;;;;;18.00;60.30;;;;;;10364340;28;93438;-48
2023/12/20 11:06:27;;;;;;;;;;;18.10;60.10;;;;;;10363963;28;93447;-57
2023/12/20 11:11:32;;;;;;;;;;;18.20;60.00;;;;;;10367048;28;93813;-51
2023/12/20 11:16:37;;;;;;;;;;;18.30;59.60;;;;;;10366246;28;93232;-48
2023/12/20 11:21:52;;;;;;;;;;;18.40;59.50;;;;;;10360429;28;93490;-48
2023/12/20 11:26:56;;;;;;;;;;;18.40;59.40;;;;;;10364236;28;94149;-46
2023/12/20 11:31:59;;;;;;;;;;;18.30;59.40;;;;;;10363022;28;96907;-51
2023/12/20 11:37:02;;;;;;;;;;;18.30;59.50;;;;;;10351303;28;93780;-47
2023/12/20 11:42:05;;;;;;;;;;;18.40;59.60;;;;;;10350712;28;93487;-45
2023/12/20 11:47:06;;;;;;;;;;;18.50;59.30;;;;;;10369415;28;93414;-45
2023/12/20 11:52:08;;;;;;;;;;;18.60;59.10;;;;;;10363298;28;93804;-46
2023/12/20 11:57:10;;;;;;;;;;;18.60;59.80;;;;;;10367559;28;94108;-49
2023/12/20 12:02:12;;;;;;;;;;;18.60;61.00;;;;;;10366752;28;93540;-47
2023/12/20 12:07:14;;;;;;;;;;;18.60;61.70;;;;;;10333671;28;92804;-46
2023/12/20 12:12:16;;;;;;;;;;;18.70;62.00;;;;;;10367364;28;92862;-46
2023/12/20 12:17:18;;;;;;;;;;;18.80;62.20;;;;;;10366195;28;94022;-47
2023/12/20 12:22:25;;;;;;;;;;;18.70;62.20;;;;;;10346726;28;95737;-44
2023/12/20 12:27:27;;;;;;;;;;;18.60;62.40;;;;;;10365784;28;93495;-46
2023/12/20 12:32:29;;;;;;;;;;;18.60;62.50;;;;;;10365822;28;94170;-50
2023/12/20 12:37:30;;;;;;;;;;;18.70;62.40;;;;;;10344545;28;94719;-45
2023/12/20 12:42:32;;;;;;;;;;;18.70;62.00;;;;;;10344303;28;93943;-46
2023/12/20 12:47:34;;;;;;;;;;;18.80;61.70;;;;;;10360688;28;95045;-48
2023/12/20 12:52:37;;;;;;;;;;;18.70;61.50;;;;;;10363838;28;94054;-49
2023/12/20 12:57:39;;;;;;;;;;;18.70;61.60;;;;;;10366151;28;92724;-49
2023/12/20 13:02:41;;;;;;;;;;;18.70;61.60;;;;;;10350757;28;93414;-45
2023/12/20 13:07:45;;;;;;;;;;;18.70;61.50;;;;;;10363087;28;93421;-45
2023/12/20 13:12:47;;;;;;;;;;;18.80;61.10;;;;;;10378703;28;96008;-46
2023/12/20 13:17:49;;;;;;;;;;;18.80;60.90;;;;;;10380525;28;93698;-48
2023/12/20 13:22:52;;;;;;;;;;;18.70;60.80;;;;;;10375820;28;93357;-47
2023/12/20 13:27:53;;;;;;;;;;;18.70;61.00;;;;;;10381072;28;95195;-46
2023/12/20 13:32:55;;;;;;;;;;;18.80;61.00;;;;;;10379912;28;93630;-44
2023/12/20 13:37:57;;;;;;;;;;;18.90;60.80;;;;;;10379387;28;94443;-47
2023/12/20 13:42:59;;;;;;;;;;;18.90;60.50;;;;;;10361519;28;93441;-44
2023/12/20 13:48:01;;;;;;;;;;;18.80;60.40;;;;;;10375132;28;92708;-46
2023/12/20 13:53:04;;;;;;;;;;;18.80;60.50;;;;;;10380031;28;93475;-46
2023/12/20 13:58:05;;;;;;;;;;;18.70;60.50;;;;;;10379604;28;94080;-46
2023/12/20 14:03:07;;;;;;;;;;;18.70;60.40;;;;;;10357922;28;96137;-44
2023/12/20 14:08:09;;;;;;;;;;;18.70;60.40;;;;;;10378979;28;93413;-46
2023/12/20 14:13:11;;;;;;;;;;;18.60;60.50;;;;;;10370442;28;93433;-46
2023/12/20 14:18:14;;;;;;;;;;;18.60;60.70;;;;;;10369395;28;93367;-48
2023/12/20 14:23:16;;;;;;;;;;;18.60;60.60;;;;;;10370303;28;93348;-46
2023/12/20 14:28:19;;;;;;;;;;;18.70;61.40;;;;;;10372145;28;93408;-47
2023/12/20 14:33:21;;;;;;;;;;;18.70;60.20;;;;;;10371093;28;93846;-49
2023/12/20 14:38:23;;;;;;;;;;;18.70;60.20;;;;;;10373220;28;92694;-47
2023/12/20 14:43:26;;;;;;;;;;;18.70;60.40;;;;;;10369860;28;93459;-44
2023/12/20 14:48:28;;;;;;;;;;;18.70;60.30;;;;;;10370986;28;93941;-46
2023/12/20 14:53:30;;;;;;;;;;;18.70;60.00;;;;;;10368969;28;95779;-48
2023/12/20 14:58:31;;;;;;;;;;;18.70;60.00;;;;;;10371021;28;93443;-45
2023/12/20 15:03:33;;;;;;;;;;;18.70;60.20;;;;;;10370299;28;94002;-44
2023/12/20 15:08:35;;;;;;;;;;;18.70;60.20;;;;;;10369794;28;93713;-48
2023/12/20 15:13:37;;;;;;;;;;;18.70;60.10;;;;;;10369023;28;94445;-50
2023/12/20 15:18:39;;;;;;;;;;;18.70;59.90;;;;;;10369493;28;93074;-48
2023/12/20 15:23:52;;;;;;;;;;;18.70;60.00;;;;;;10367617;28;93250;-55
2023/12/20 15:28:54;;;;;;;;;;;18.60;60.00;;;;;;10368672;28;92585;-46
2023/12/20 15:33:56;;;;;;;;;;;18.70;60.10;;;;;;10368501;28;93476;-47
2023/12/20 15:38:57;;;;;;;;;;;18.70;60.00;;;;;;10368982;28;93916;-50
2023/12/20 15:43:59;;;;;;;;;;;18.70;59.80;;;;;;10365711;28;95826;-46
2023/12/20 15:49:01;;;;;;;;;;;18.70;59.80;;;;;;10365615;28;93649;-46
2023/12/20 15:54:06;;;;;;;;;;;18.70;60.00;;;;;;10343446;28;94439;-46
2023/12/20 15:59:09;;;;;;;;;;;18.70;60.00;;;;;;10368035;28;93518;-45
2023/12/20 16:04:11;;;;;;;;;;;18.80;59.80;;;;;;10368061;28;93770;-49
2023/12/20 16:09:13;;;;;;;;;;;18.70;59.70;;;;;;10368063;28;93474;-45
2023/12/20 16:14:17;;;;;;;;;;;18.70;59.80;;;;;;10368179;28;93443;-46
2023/12/20 16:19:19;;;;;;;;;;;18.70;60.00;;;;;;10369767;28;93278;-47
2023/12/20 16:24:21;;;;;;;;;;;18.70;59.80;;;;;;10368270;28;93838;-49
2023/12/20 16:29:23;;;;;;;;;;;18.80;59.70;;;;;;10364754;28;94431;-44
2023/12/20 16:34:25;;;;;;;;;;;18.70;59.50;;;;;;10360832;28;95795;-48
2023/12/20 16:39:27;;;;;;;;;;;18.70;59.70;;;;;;10364910;28;94514;-45
2023/12/20 16:44:29;;;;;;;;;;;18.70;59.70;;;;;;10366385;28;93416;-46
2023/12/20 16:49:31;;;;;;;;;;;18.80;59.60;;;;;;10366210;28;93375;-46
2023/12/20 16:54:33;;;;;;;;;;;18.70;59.60;;;;;;10348001;28;94431;-46
2023/12/20 16:59:35;;;;;;;;;;;18.70;59.70;;;;;;10365559;28;94424;-48
2023/12/20 17:04:37;;;;;;;;;;;18.70;60.00;;;;;;10365304;28;94874;-44
2023/12/20 17:09:39;;;;;;;;;;;18.70;59.90;;;;;;10337692;28;93710;-45
2023/12/20 17:14:41;;;;;;;;;;;18.80;59.90;;;;;;10365566;28;94438;-45
2023/12/20 17:19:43;;;;;;;;;;;18.70;60.40;;;;;;10365145;28;93492;-48
2023/12/20 17:24:46;;;;;;;;;;;18.70;61.90;;;;;;10358071;28;95860;-49
2023/12/20 17:29:48;;;;;;;;;;;18.70;64.50;;;;;;10362633;28;93475;-49
2023/12/20 17:34:50;;;;;;;;;;;18.80;66.50;;;;;;10361926;28;94094;-49
2023/12/20 17:39:51;;;;;;;;;;;18.90;64.90;;;;;;10366010;28;93123;-44
2023/12/20 17:44:53;;;;;;;;;;;18.90;64.10;;;;;;10363916;28;93709;-44
2023/12/20 17:49:55;;;;;;;;;;;18.80;63.90;;;;;;10368015;28;93428;-44
2023/12/20 17:54:57;;;;;;;;;;;18.70;66.50;;;;;;10372345;28;93584;-44
2023/12/20 18:00:10;;;;;;;;;;;18.70;65.30;;;;;;10353297;28;92860;-44
2023/12/20 18:05:12;;;;;;;;;;;18.70;64.50;;;;;;10367737;28;93350;-44
2023/12/20 18:10:14;;;;;;;;;;;18.70;64.20;;;;;;10371236;28;93709;-44
2023/12/20 18:15:18;;;;;;;;;;;18.70;64.30;;;;;;10369296;28;96165;-44
2023/12/20 18:20:20;;;;;;;;;;;18.60;64.30;;;;;;10371678;28;94188;-44
2023/12/20 18:25:21;;;;;;;;;;;18.60;64.50;;;;;;10367913;28;93703;-45
2023/12/20 18:30:24;;;;;;;;;;;18.60;64.50;;;;;;10372254;28;97731;-44
2023/12/20 18:35:26;;;;;;;;;;;18.60;64.50;;;;;;10367755;28;93634;-44
2023/12/20 18:40:29;;;;;;;;;;;18.60;64.70;;;;;;10372340;28;94368;-46
2023/12/20 18:45:31;;;;;;;;;;;18.50;64.80;;;;;;10363313;28;93932;-61
2023/12/20 18:50:33;;;;;;;;;;;18.50;64.80;;;;;;10373179;28;92722;-44
2023/12/20 18:55:34;;;;;;;;;;;18.40;64.80;;;;;;10374200;28;94462;-44
2023/12/20 19:00:36;;;;;;;;;;;18.30;64.80;;;;;;10377750;27;93408;-46
2023/12/20 19:05:39;;;;;;;;;;;18.20;64.80;;;;;;10366821;28;95808;-45
2023/12/20 19:10:41;;;;;;;;;;;18.10;64.90;;;;;;10375164;28;93901;-44
2023/12/20 19:15:43;;;;;;;;;;;18.10;65.00;;;;;;10363059;28;94760;-46
2023/12/20 19:20:48;;;;;;;;;;;18.10;65.10;;;;;;10369509;28;94496;-46
2023/12/20 19:25:50;;;;;;;;;;;18.10;65.10;;;;;;10356708;28;93877;-46
2023/12/20 19:30:52;;;;;;;;;;;18.20;64.90;;;;;;10367513;28;93471;-50
2023/12/20 19:35:53;;;;;;;;;;;18.30;64.70;;;;;;10368072;28;96649;-50
2023/12/20 19:40:55;;;;;;;;;;;18.50;64.60;;;;;;10368837;28;93736;-50
2023/12/20 19:45:57;;;;;;;;;;;18.60;64.40;;;;;;10368238;28;93663;-54
2023/12/20 19:50:59;;;;;;;;;;;18.70;64.00;;;;;;10368071;28;93407;-48
2023/12/20 19:56:01;;;;;;;;;;;18.70;63.80;;;;;;10364369;28;96779;-45
2023/12/20 20:01:03;;;;;;;;;;;18.60;63.60;;;;;;10365697;28;94149;-49
2023/12/20 20:06:05;;;;;;;;;;;18.70;63.60;;;;;;10366191;28;93689;-43
2023/12/20 20:11:09;;;;;;;;;;;18.70;63.40;;;;;;10366643;28;94787;-45
2023/12/20 20:16:27;;;;;;;;;;;18.70;63.50;;;;;;10354698;28;94002;-44
2023/12/20 20:21:29;;;;;;;;;;;18.70;63.50;;;;;;10349170;28;93524;-48
2023/12/20 20:26:31;;;;;;;;;;;18.70;63.60;;;;;;10366954;28;93514;-48
2023/12/20 20:31:34;;;;;;;;;;;18.70;63.60;;;;;;10367522;28;92626;-44
2023/12/20 20:36:37;;;;;;;;;;;18.70;63.60;;;;;;10367672;28;94779;-45
2023/12/20 20:41:39;;;;;;;;;;;18.70;63.50;;;;;;10360457;28;93471;-44
2023/12/20 20:46:40;;;;;;;;;;;18.60;63.60;;;;;;10364861;28;98016;-46
2023/12/20 20:51:42;;;;;;;;;;;18.60;63.60;;;;;;10347787;28;93692;-46
2023/12/20 20:56:44;;;;;;;;;;;18.50;63.70;;;;;;10365796;28;92931;-48
2023/12/20 21:01:46;;;;;;;;;;;18.40;64.80;;;;;;10357154;28;93803;-45
2023/12/20 21:06:48;;;;;;;;;;;18.40;64.00;;;;;;10364825;28;96504;-48
2023/12/20 21:11:50;;;;;;;;;;;18.30;64.20;;;;;;10365232;28;93506;-49
2023/12/20 21:16:52;;;;;;;;;;;18.20;64.40;;;;;;10366281;28;93415;-46
2023/12/20 21:21:54;;;;;;;;;;;18.10;64.40;;;;;;10367194;28;92718;-47
2023/12/20 21:26:56;;;;;;;;;;;18.00;64.50;;;;;;10366020;28;94161;-45
2023/12/20 21:31:58;;;;;;;;;;;18.00;64.60;;;;;;10372763;28;94272;-51
2023/12/20 21:37:00;;;;;;;;;;;17.90;64.70;;;;;;10369539;28;96325;-47
2023/12/20 21:42:02;;;;;;;;;;;17.80;64.80;;;;;;10372761;28;93488;-58
2023/12/20 21:47:04;;;;;;;;;;;17.80;64.60;;;;;;10372933;28;93952;-44
2023/12/20 21:52:06;;;;;;;;;;;17.70;64.30;;;;;;10372637;28;93802;-44
2023/12/20 21:57:07;;;;;;;;;;;17.70;63.90;;;;;;10372782;28;93610;-54
2023/12/20 22:02:10;;;;;;;;;;;17.70;63.70;;;;;;10371224;28;93674;-47
2023/12/20 22:07:12;;;;;;;;;;;17.60;63.40;;;;;;10353846;28;94626;-47
2023/12/20 22:12:14;;;;;;;;;;;17.60;63.20;;;;;;10352503;28;94119;-46
2023/12/20 22:17:16;;;;;;;;;;;17.60;62.90;;;;;;10368616;28;93487;-45
2023/12/20 22:22:18;;;;;;;;;;;17.50;62.60;;;;;;10353415;28;94581;-47
2023/12/20 22:27:20;;;;;;;;;;;17.50;62.40;;;;;;10367745;28;96643;-46
2023/12/20 22:32:23;;;;;;;;;;;17.50;62.80;;;;;;10372201;28;94580;-45
2023/12/20 22:37:25;;;;;;;;;;;17.40;63.00;;;;;;10370278;28;93273;-45
2023/12/20 22:42:27;;;;;;;;;;;17.30;62.90;;;;;;10369913;28;93774;-44
2023/12/20 22:47:29;;;;;;;;;;;17.40;62.70;;;;;;10372010;28;93584;-46
2023/12/20 22:52:31;;;;;;;;;;;17.30;62.40;;;;;;10370980;28;93216;-44
2023/12/20 22:57:33;;;;;;;;;;;17.30;62.10;;;;;;10369411;28;92639;-45
2023/12/20 23:02:34;;;;;;;;;;;17.30;61.90;;;;;;10370301;28;92682;-45
2023/12/20 23:07:36;;;;;;;;;;;17.30;61.70;;;;;;10352626;28;93841;-45
2023/12/20 23:12:38;;;;;;;;;;;17.30;61.40;;;;;;10370529;28;94208;-45
2023/12/20 23:17:41;;;;;;;;;;;17.30;61.10;;;;;;10350065;28;96214;-48
2023/12/20 23:22:43;;;;;;;;;;;17.30;61.00;;;;;;10369630;28;93386;-47
2023/12/20 23:27:46;;;;;;;;;;;17.30;61.50;;;;;;10367604;28;93066;-45
2023/12/20 23:32:49;;;;;;;;;;;17.20;61.80;;;;;;10368008;28;94053;-48
2023/12/20 23:37:51;;;;;;;;;;;17.20;61.70;;;;;;10368969;28;93651;-50
2023/12/20 23:42:53;;;;;;;;;;;17.20;61.30;;;;;;10368374;28;94805;-50
2023/12/20 23:47:55;;;;;;;;;;;17.20;61.10;;;;;;10366310;28;93915;-48
2023/12/20 23:52:57;;;;;;;;;;;17.20;60.80;;;;;;10369215;28;93023;-48
2023/12/20 23:57:59;;;;;;;;;;;17.20;60.60;;;;;;10368566;28;93463;-45
